Map

Track Data

SID SEASON NUMBER BASIN SUBBASIN NAME ISO_TIME NATURE LAT LON WMO_WIND WMO_PRES WMO_AGENCY TRACK_TYPE DIST2LAND LANDFALL IFLAG USA_AGENCY USA_ATCF_ID USA_LAT USA_LON USA_RECORD USA_STATUS USA_WIND USA_PRES USA_SSHS USA_R34_NE USA_R34_SE USA_R34_SW USA_R34_NW USA_R50_NE USA_R50_SE USA_R50_SW USA_R50_NW USA_R64_NE USA_R64_SE USA_R64_SW USA_R64_NW USA_POCI USA_ROCI USA_RMW USA_EYE TOKYO_LAT TOKYO_LON TOKYO_GRADE TOKYO_WIND TOKYO_PRES TOKYO_R50_DIR TOKYO_R50_LONG TOKYO_R50_SHORT TOKYO_R30_DIR TOKYO_R30_LONG TOKYO_R30_SHORT TOKYO_LAND CMA_LAT CMA_LON CMA_CAT CMA_WIND CMA_PRES HKO_LAT HKO_LON HKO_CAT HKO_WIND HKO_PRES NEWDELHI_LAT NEWDELHI_LON NEWDELHI_GRADE NEWDELHI_WIND NEWDELHI_PRES NEWDELHI_CI NEWDELHI_DP NEWDELHI_POCI REUNION_LAT REUNION_LON REUNION_TYPE REUNION_WIND REUNION_PRES REUNION_TNUM REUNION_CI REUNION_RMW REUNION_R34_NE REUNION_R34_SE REUNION_R34_SW REUNION_R34_NW REUNION_R50_NE REUNION_R50_SE REUNION_R50_SW REUNION_R50_NW REUNION_R64_NE REUNION_R64_SE REUNION_R64_SW REUNION_R64_NW BOM_LAT BOM_LON BOM_TYPE BOM_WIND BOM_PRES BOM_TNUM BOM_CI BOM_RMW BOM_R34_NE BOM_R34_SE BOM_R34_SW BOM_R34_NW BOM_R50_NE BOM_R50_SE BOM_R50_SW BOM_R50_NW BOM_R64_NE BOM_R64_SE BOM_R64_SW BOM_R64_NW BOM_ROCI BOM_POCI BOM_EYE BOM_POS_METHOD BOM_PRES_METHOD NADI_LAT NADI_LON NADI_CAT NADI_WIND NADI_PRES WELLINGTON_LAT WELLINGTON_LON WELLINGTON_WIND WELLINGTON_PRES DS824_LAT DS824_LON DS824_STAGE DS824_WIND DS824_PRES TD9636_LAT TD9636_LON TD9636_STAGE TD9636_WIND TD9636_PRES TD9635_LAT TD9635_LON TD9635_WIND TD9635_PRES TD9635_ROCI NEUMANN_LAT NEUMANN_LON NEUMANN_CLASS NEUMANN_WIND NEUMANN_PRES MLC_LAT MLC_LON MLC_CLASS MLC_WIND MLC_PRES USA_GUST BOM_GUST BOM_GUST_PER REUNION_GUST REUNION_GUST_PER USA_SEAHGT USA_SEARAD_NE USA_SEARAD_SE USA_SEARAD_SW USA_SEARAD_NW STORM_SPEED STORM_DIR
1963126S26153 1963 41 SP EA NOT_NAMED 1963-05-05 23:00:00 NR -25.8000 152.500 1015 bom main 0 0 ______O___O___ -1 -25.8000 152.500 1015 -25.8000 152.500 1 20 11 0
1963126S26153 1963 41 SP EA NOT_NAMED 1963-05-06 00:00:00 TS -25.9783 152.499 main 0 0 O_____P__OP___ jtwc_sh SH501963 -26.0000 152.500 25 -1 -25.9688 152.460 1014 -26.0000 152.500 TC 15 1015 -25.9552 152.538 1 21 10 175
1963126S26153 1963 41 SP EA NOT_NAMED 1963-05-06 03:00:00 TS -26.4768 152.559 main 0 0 P_____P__PP___ SH501963 -26.5051 152.675 30 -1 -26.4716 152.380 1013 -26.5050 152.465 TC 15 1013 -26.4254 152.648 1 25 10 173
1963126S26153 1963 41 SP EA NOT_NAMED 1963-05-06 05:00:00 TS -26.8071 152.616 1012 bom main 0 0 P_____O__PP___ SH501963 -26.8368 152.767 33 -1 -26.8000 152.400 1012 -26.8367 152.476 TC 15 1012 -26.7477 152.711 1 28 10 169
1963126S26153 1963 41 SP EA NOT_NAMED 1963-05-06 06:00:00 TS -26.9749 152.656 main 0 0 O_____P__OP___ jtwc_sh SH501963 -27.0000 152.800 35 0 -26.9615 152.443 1012 -27.0000 152.500 TC 15 1012 -26.9130 152.737 1 29 10 170
1963126S26153 1963 41 SP EA NOT_NAMED 1963-05-06 09:00:00 TS -27.4674 152.753 main 0 0 P_____P__PP___ SH501963 -27.4850 152.838 35 0 -27.4510 152.655 1012 -27.4851 152.642 TC 15 1012 -27.4311 152.792 1 34 10 171
1963126S26153 1963 41 SP EA NOT_NAMED 1963-05-06 11:00:00 TS -27.8131 152.798 1012 bom main 0 0 P_____O__PO___ SH501963 -27.8219 152.819 35 0 -27.8000 152.800 1012 -27.8220 152.753 TC 15 1012 -27.8000 152.800 2 37 11 175
1963126S26153 1963 41 SP EA NOT_NAMED 1963-05-06 12:00:00 TS -27.9973 152.811 main 0 0 O_____P__OP___ jtwc_sh SH501963 -28.0000 152.800 35 0 -27.9938 152.863 1011 -28.0000 152.800 TC 15 1012 -27.9926 152.794 2 36 12 178
1963126S26153 1963 41 SP EA NOT_NAMED 1963-05-06 15:00:00 TS -28.6031 152.812 main 0 0 P_____P__PP___ SH501963 -28.6075 152.708 32 -1 -28.6049 152.999 1011 -28.6074 152.902 TC 15 1011 -28.5881 152.743 2 33 12 182
1963126S26153 1963 41 SP EA NOT_NAMED 1963-05-06 17:00:00 TS -29.0036 152.774 1011 bom main 0 0 P_____O__PP___ SH501963 -29.0119 152.633 30 -1 -29.0000 153.000 1011 -29.0118 152.917 TC 15 1011 -28.9825 152.689 2 31 12 186
1963126S26153 1963 41 SP EA NOT_NAMED 1963-05-06 18:00:00 TS -29.1925 152.742 main 0 0 O_____P__OP___ jtwc_sh SH501963 -29.2000 152.600 30 -1 -29.1887 152.949 1011 -29.2000 152.900 TC 15 1011 -29.1737 152.658 2 30 11 192
1963126S26153 1963 41 SP EA NOT_NAMED 1963-05-06 21:00:00 TS -29.7023 152.610 main 0 0 P_____P__PP___ SH501963 -29.7025 152.542 27 -1 -29.7093 152.682 1011 -29.6951 152.723 TC 15 1011 -29.7023 152.561 2 27 10 194
1963126S26153 1963 41 SP EA NOT_NAMED 1963-05-06 23:00:00 TS -29.9873 152.519 1012 bom main 0 0 P_____O__PO___ SH501963 -29.9807 152.514 25 -1 -30.0000 152.500 1012 -29.9751 152.569 TC 15 1011 -30.0000 152.500 1 25 8 195
1963126S26153 1963 41 SP EA NOT_NAMED 1963-05-07 00:00:00 TS -30.1101 152.485 main 0 0 O_____P__OP___ jtwc_sh SH501963 -30.1000 152.500 25 -1 -30.1307 152.444 1011 -30.1000 152.500 TC 15 1012 -30.1198 152.480 1 25 7 193
1963126S26153 1963 41 SP EA NOT_NAMED 1963-05-07 03:00:00 TS -30.4147 152.406 main 0 0 P_____P__PP___ SH501963 -30.3875 152.450 25 -1 -30.4454 152.334 1010 -30.4450 152.370 TC 15 1010 -30.4080 152.425 1 26 6 192
1963126S26153 1963 41 SP EA NOT_NAMED 1963-05-07 05:00:00 TS -30.5691 152.368 1009 bom main 0 0 P_____O__PP___ SH501963 -30.5329 152.417 25 -1 -30.6000 152.300 1009 -30.6250 152.317 TC 15 1009 -30.5549 152.392 1 27 5 192
1963126S26153 1963 41 SP EA NOT_NAMED 1963-05-07 06:00:00 TS -30.6372 152.353 main 0 0 O_____P__OP___ jtwc_sh SH501963 -30.6000 152.400 25 -1 -30.6671 152.291 1009 -30.7000 152.300 TC 15 1009 -30.6189 152.376 1 27 4 190
1963126S26153 1963 41 SP EA NOT_NAMED 1963-05-07 09:00:00 TS -30.8187 152.324 main 0 0 P_____P__PP___ SH501963 -30.8075 152.350 27 -1 -30.8163 152.297 1010 -30.8725 152.292 TC 15 1010 -30.7898 152.330 1 29 4 187
1963126S26153 1963 41 SP EA NOT_NAMED 1963-05-07 11:00:00 TS -30.9260 152.307 1012 bom main 0 0 P_____O__PO___ SH501963 -30.9360 152.317 29 -1 -30.9000 152.300 1012 -30.9579 152.300 TC 15 1011 -30.9000 152.300 1 30 3 187
1963126S26153 1963 41 SP EA NOT_NAMED 1963-05-07 12:00:00 TS -30.9805 152.295 main 0 0 O_____P__OP___ jtwc_sh SH501963 -31.0000 152.300 30 -1 -30.9448 152.289 1011 -31.0000 152.300 TC 15 1012 -30.9579 152.284 1 31 3 195
1963126S26153 1963 41 SP EA NOT_NAMED 1963-05-07 15:00:00 TS -31.1487 152.247 main 0 0 P_____P__PP___ SH501963 -31.1975 152.250 35 0 -31.0842 152.239 1010 -31.1425 152.265 TC 15 1011 -31.1445 152.236 1 37 4 193
1963126S26153 1963 41 SP EA NOT_NAMED 1963-05-07 17:00:00 TS -31.2666 152.209 1010 bom main 0 0 P_____O__PP___ SH501963 -31.3323 152.217 38 0 -31.2000 152.200 1010 -31.2468 152.223 TC 15 1010 -31.2776 152.203 1 41 4 195
1963126S26153 1963 41 SP EA NOT_NAMED 1963-05-07 18:00:00 TS -31.3275 152.189 main 0 0 O_____P__OP___ jtwc_sh SH501963 -31.4000 152.200 40 0 -31.2698 152.182 1010 -31.3000 152.200 TC 15 1010 -31.3461 152.186 1 42 4 195
1963126S26153 1963 41 SP EA NOT_NAMED 1963-05-07 21:00:00 NR -31.5373 152.133 main 0 0 ______P___P___ SH501963 -1 -31.5175 152.131 1010 TC -31.5570 152.135 1 48 5 193
1963126S26153 1963 41 SP EA NOT_NAMED 1963-05-07 23:00:00 NR -31.7000 152.100 1010 bom main 0 ______O___O___ SH501963 -1 -31.7000 152.100 1010 TC -31.7000 152.100 2 52 5 194

Digital Typhoon Data and Search

About IBTrACS Database

This database is a web-friendly format of International Best Track Archive for Climate Stewardship (IBTrACS), a global best track data archive curated by NOAA dating back to 1842.

Updated: 2021-12-06